sim
Sign-in with your pilot id or email,
or register
Callsign
Passwort

Schedule Details

Flight Number: OEO2482
Departure: Frankfurt Airport (EDDF) at 19:55
Arrival: Munich Airport (EDDM) at 21:05

Weather Information
Getting current METAR information for EDDF 240450Z 21011KT 9999 FEW022 SCT035 17/13 Q1004 NOSIG
Getting current METAR information for EDDM 240450Z VRB01KT CAVOK 08/08 Q1009 NOSIG

Schedule Frequency

Route Map